Time;durP1;ratioP1;P1;durP2;ratioP2;P2;SDS_P1;SDS_P2;PMS_P1;PMS_P2;Temp;Humidity;BMP_temperature;BMP_pressure;BME280_temperature;BME280_humidity;BME280_pressure;Samples;Min_cycle;Max_cycle;Signal;HPM_P1;HPM_P2
2022/11/21 00:01:00;;;;;;;15.27;10.30;;;12.60;54.20;;;;;;5084865;28;20454;-82
2022/11/21 00:03:28;;;;;;;14.00;9.17;;;12.60;54.10;;;;;;5084249;28;20449;-83
2022/11/21 00:05:56;;;;;;;14.73;10.10;;;12.60;54.00;;;;;;5085529;28;20465;-83
2022/11/21 00:08:25;;;;;;;16.50;9.63;;;12.60;54.20;;;;;;5072530;28;20473;-80
2022/11/21 00:10:53;;;;;;;17.10;10.10;;;12.50;54.20;;;;;;5083447;28;20466;-82
2022/11/21 00:13:21;;;;;;;20.33;9.97;;;12.60;54.10;;;;;;5077634;28;20456;-82
2022/11/21 00:15:49;;;;;;;15.47;9.30;;;12.60;54.30;;;;;;5077679;28;20470;-81
2022/11/21 00:18:17;;;;;;;14.97;9.40;;;12.50;54.20;;;;;;5082176;28;20446;-82
2022/11/21 00:20:46;;;;;;;18.00;10.70;;;12.50;54.30;;;;;;5086526;28;20505;-83
2022/11/21 00:23:13;;;;;;;14.87;9.50;;;12.50;54.30;;;;;;5083847;28;20446;-83
2022/11/21 00:25:43;;;;;;;17.70;9.87;;;12.60;54.30;;;;;;5084747;28;20481;-84
2022/11/21 00:28:11;;;;;;;12.37;8.90;;;12.50;54.30;;;;;;5086429;28;20457;-83
2022/11/21 00:30:39;;;;;;;13.80;8.77;;;12.50;54.30;;;;;;5075698;28;20465;-84
2022/11/21 00:33:07;;;;;;;15.30;9.57;;;12.50;54.20;;;;;;5082082;28;20461;-83
2022/11/21 00:35:35;;;;;;;14.93;9.00;;;12.50;54.30;;;;;;5080535;28;20500;-83
2022/11/21 00:38:03;;;;;;;16.73;8.60;;;12.50;54.30;;;;;;5086377;28;20445;-83
2022/11/21 00:40:31;;;;;;;14.40;9.03;;;12.50;54.20;;;;;;5083620;28;20476;-83
2022/11/21 00:43:01;;;;;;;14.40;9.10;;;12.50;54.30;;;;;;5082796;28;20461;-83
2022/11/21 00:45:29;;;;;;;14.00;9.27;;;12.50;54.30;;;;;;5080906;28;20476;-83
2022/11/21 00:47:56;;;;;;;13.50;8.83;;;12.50;54.40;;;;;;5086923;28;20453;-84
2022/11/21 00:50:24;;;;;;;12.93;8.40;;;12.50;54.40;;;;;;5083462;28;20475;-83
2022/11/21 00:52:55;;;;;;;12.47;7.87;;;12.50;54.40;;;;;;5084183;28;20484;-84
2022/11/21 00:55:23;;;;;;;11.40;8.57;;;12.50;54.40;;;;;;5084852;28;20471;-83
2022/11/21 00:57:51;;;;;;;14.17;8.97;;;12.40;54.30;;;;;;5081926;28;20453;-83
2022/11/21 01:00:21;;;;;;;12.73;8.53;;;12.50;54.40;;;;;;5085902;28;20456;-83
2022/11/21 01:02:49;;;;;;;12.67;8.27;;;12.40;54.30;;;;;;5085796;28;20454;-82
2022/11/21 01:05:18;;;;;;;11.10;8.13;;;12.40;54.20;;;;;;5088373;28;20465;-81
2022/11/21 01:07:47;;;;;;;12.10;7.97;;;12.40;54.20;;;;;;5087076;28;20465;-83
2022/11/21 01:10:16;;;;;;;14.93;8.70;;;12.40;54.30;;;;;;5086438;28;20461;-83
2022/11/21 01:12:44;;;;;;;13.00;8.37;;;12.40;54.30;;;;;;5086140;28;20454;-83
2022/11/21 01:15:12;;;;;;;13.10;8.50;;;12.40;54.30;;;;;;5086994;28;20483;-84
2022/11/21 01:17:41;;;;;;;13.20;8.10;;;12.40;54.20;;;;;;5086089;28;20549;-83
2022/11/21 01:20:10;;;;;;;9.10;7.20;;;12.40;54.30;;;;;;5086558;28;20448;-84
2022/11/21 01:22:38;;;;;;;16.23;9.00;;;12.40;54.10;;;;;;5084969;28;20456;-83
2022/11/21 01:25:06;;;;;;;12.80;8.30;;;12.30;54.20;;;;;;5085533;28;20539;-83
2022/11/21 01:27:35;;;;;;;13.17;8.30;;;12.30;54.10;;;;;;5078430;28;20533;-83
2022/11/21 01:30:04;;;;;;;11.27;7.80;;;12.30;54.00;;;;;;5086248;28;20461;-83
2022/11/21 01:32:32;;;;;;;14.50;7.87;;;12.30;54.00;;;;;;5083958;28;20496;-83
2022/11/21 01:35:01;;;;;;;13.90;8.17;;;12.30;54.10;;;;;;5080803;28;20465;-83
2022/11/21 01:37:29;;;;;;;12.30;8.50;;;12.30;54.10;;;;;;5084720;28;20445;-83
2022/11/21 01:39:57;;;;;;;11.63;8.03;;;12.30;53.90;;;;;;5090505;28;20449;-83
2022/11/21 01:42:25;;;;;;;9.90;7.63;;;12.30;54.00;;;;;;5089734;28;20461;-83
2022/11/21 01:44:53;;;;;;;10.57;8.47;;;12.20;54.00;;;;;;5085382;28;20449;-83
2022/11/21 01:47:22;;;;;;;8.70;7.00;;;12.20;54.00;;;;;;5088558;28;20449;-83
2022/11/21 01:49:50;;;;;;;10.97;8.00;;;12.20;54.10;;;;;;5085046;28;20442;-83
2022/11/21 01:52:21;;;;;;;12.93;7.70;;;12.20;54.00;;;;;;5087548;28;20470;-84
2022/11/21 01:54:52;;;;;;;13.77;7.93;;;12.30;54.10;;;;;;5077305;28;20464;-83
2022/11/21 01:57:23;;;;;;;16.00;7.60;;;12.20;54.00;;;;;;5080530;28;20484;-83
2022/11/21 01:59:52;;;;;;;10.30;7.83;;;12.30;54.10;;;;;;5078602;28;20552;-83
2022/11/21 02:02:21;;;;;;;10.23;7.10;;;12.20;54.20;;;;;;5083361;28;20442;-82
2022/11/21 02:04:51;;;;;;;11.60;7.10;;;12.20;54.20;;;;;;5083969;28;20454;-84
2022/11/21 02:07:21;;;;;;;10.40;8.00;;;12.20;54.20;;;;;;5082453;28;20450;-83
2022/11/21 02:09:51;;;;;;;11.10;8.27;;;12.20;54.20;;;;;;5081945;28;20427;-84
2022/11/21 02:12:23;;;;;;;14.20;8.07;;;12.20;54.30;;;;;;5085941;28;20473;-83
2022/11/21 02:14:51;;;;;;;11.90;8.20;;;12.20;54.20;;;;;;5077066;28;20457;-80
2022/11/21 02:17:19;;;;;;;11.40;7.93;;;12.20;54.20;;;;;;5080118;28;20449;-83
2022/11/21 02:19:50;;;;;;;11.50;7.90;;;12.20;54.30;;;;;;5078937;28;20460;-82
2022/11/21 02:22:23;;;;;;;12.50;7.73;;;12.20;54.30;;;;;;5078265;28;20453;-82
2022/11/21 02:25:03;;;;;;;10.20;7.97;;;12.20;54.30;;;;;;5075685;28;20452;-82
2022/11/21 02:27:31;;;;;;;10.10;7.63;;;12.20;54.20;;;;;;5076685;28;20441;-83
2022/11/21 02:29:59;;;;;;;12.00;7.73;;;12.10;54.20;;;;;;5073377;28;20442;-81
2022/11/21 02:32:32;;;;;;;12.30;8.03;;;12.20;54.30;;;;;;5086615;28;20476;-83
2022/11/21 02:35:00;;;;;;;14.63;7.50;;;12.20;54.30;;;;;;5100776;28;20444;-83
2022/11/21 02:37:28;;;;;;;9.10;6.97;;;12.20;54.20;;;;;;5101698;28;20439;-83
2022/11/21 02:39:59;;;;;;;10.07;7.23;;;12.10;54.10;;;;;;5076463;28;20441;-83
2022/11/21 02:42:28;;;;;;;12.33;7.43;;;12.10;54.00;;;;;;5076223;28;20454;-82
2022/11/21 02:45:06;;;;;;;9.90;7.40;;;12.10;54.00;;;;;;5071861;28;20450;-83
2022/11/21 02:47:34;;;;;;;11.60;7.83;;;12.10;54.00;;;;;;5081372;28;20437;-82
2022/11/21 02:50:06;;;;;;;10.73;7.20;;;12.10;54.10;;;;;;5082571;28;20446;-82
2022/11/21 02:52:34;;;;;;;11.17;7.30;;;12.00;53.90;;;;;;5086740;28;20488;-82
2022/11/21 02:55:04;;;;;;;11.40;8.03;;;12.10;54.10;;;;;;5080701;28;20440;-83
2022/11/21 02:57:32;;;;;;;8.90;7.00;;;12.00;54.00;;;;;;5079484;28;20441;-82
2022/11/21 03:00:00;;;;;;;12.43;7.13;;;12.00;53.90;;;;;;5080071;28;20429;-83
2022/11/21 03:02:28;;;;;;;14.60;7.70;;;12.00;53.80;;;;;;5076758;28;20446;-81
2022/11/21 03:04:56;;;;;;;11.17;7.30;;;11.90;53.70;;;;;;5078721;28;20441;-82
2022/11/21 03:07:24;;;;;;;10.47;7.77;;;12.00;53.90;;;;;;5078401;28;20441;-83
2022/11/21 03:09:52;;;;;;;12.67;7.50;;;11.90;53.70;;;;;;5079639;28;20426;-83
2022/11/21 03:12:21;;;;;;;9.20;7.00;;;11.90;53.60;;;;;;5079021;28;20478;-83
2022/11/21 03:14:49;;;;;;;10.20;7.90;;;11.90;53.80;;;;;;5079216;28;20456;-82
2022/11/21 03:17:17;;;;;;;10.43;7.50;;;11.90;53.70;;;;;;5079377;28;20458;-82
2022/11/21 03:19:45;;;;;;;12.77;8.03;;;11.90;53.60;;;;;;5077831;28;20460;-82
2022/11/21 03:22:14;;;;;;;13.50;7.80;;;11.90;53.60;;;;;;5080521;28;20442;-83
2022/11/21 03:24:41;;;;;;;9.27;7.50;;;11.80;53.60;;;;;;5074774;28;20457;-82
2022/11/21 03:27:10;;;;;;;10.30;7.50;;;11.80;53.50;;;;;;5068104;28;20473;-83
2022/11/21 03:29:39;;;;;;;10.77;7.70;;;11.80;53.50;;;;;;5068592;28;20454;-83
2022/11/21 03:32:08;;;;;;;12.30;7.53;;;11.80;53.50;;;;;;5076224;28;20547;-83
2022/11/21 03:34:35;;;;;;;14.03;8.47;;;11.80;53.40;;;;;;5075973;28;20454;-83
2022/11/21 03:37:04;;;;;;;11.77;8.00;;;11.80;53.40;;;;;;5076574;28;20552;-83
2022/11/21 03:39:31;;;;;;;9.20;7.13;;;11.80;53.40;;;;;;5075696;28;20449;-82
2022/11/21 03:42:00;;;;;;;11.77;8.10;;;11.80;53.30;;;;;;5077632;28;20454;-82
2022/11/21 03:44:27;;;;;;;9.90;7.50;;;11.80;53.40;;;;;;5076901;28;20490;-83
2022/11/21 03:46:57;;;;;;;15.30;8.07;;;11.80;53.30;;;;;;5076689;28;20476;-84
2022/11/21 03:49:25;;;;;;;8.93;6.87;;;11.70;53.30;;;;;;5074308;28;20449;-84
2022/11/21 03:51:53;;;;;;;11.40;7.80;;;11.70;53.40;;;;;;5072003;28;20470;-84
2022/11/21 03:54:21;;;;;;;10.10;7.60;;;11.70;53.20;;;;;;5073056;28;20532;-85
2022/11/21 03:56:50;;;;;;;32.67;8.57;;;11.70;53.20;;;;;;5073930;28;20486;-86
2022/11/21 03:59:18;;;;;;;12.17;7.67;;;11.70;53.20;;;;;;5072075;28;20455;-86
2022/11/21 04:01:46;;;;;;;10.03;7.13;;;11.60;53.20;;;;;;5074929;28;20453;-83
2022/11/21 04:04:15;;;;;;;15.00;7.93;;;11.60;53.00;;;;;;5074609;28;20453;-84
2022/11/21 04:06:44;;;;;;;10.03;7.30;;;11.60;53.20;;;;;;5074846;28;20474;-84
2022/11/21 04:09:12;;;;;;;10.87;7.10;;;11.60;53.20;;;;;;5071824;28;20458;-84
2022/11/21 04:11:40;;;;;;;10.77;7.70;;;11.60;53.20;;;;;;5067981;28;20469;-84
2022/11/21 04:14:07;;;;;;;11.63;7.70;;;11.60;53.10;;;;;;5070605;28;20450;-84
2022/11/21 04:16:35;;;;;;;11.63;7.50;;;11.50;53.20;;;;;;5075801;28;20473;-85
2022/11/21 04:19:03;;;;;;;13.03;8.17;;;11.60;53.10;;;;;;5075332;28;20457;-84
2022/11/21 04:21:33;;;;;;;13.60;7.30;;;11.50;53.10;;;;;;5087970;28;20429;-84
2022/11/21 04:24:01;;;;;;;10.30;7.60;;;11.50;53.00;;;;;;5092830;28;20444;-86
2022/11/21 04:26:29;;;;;;;11.60;7.83;;;11.50;53.10;;;;;;5086464;28;20480;-85
2022/11/21 04:28:57;;;;;;;12.50;7.43;;;11.50;53.20;;;;;;5087798;28;20442;-85
2022/11/21 04:31:25;;;;;;;9.63;7.27;;;11.50;53.00;;;;;;5095476;28;20448;-85
2022/11/21 04:33:54;;;;;;;10.80;8.03;;;11.50;53.00;;;;;;5089073;28;20488;-85
2022/11/21 04:36:22;;;;;;;12.93;7.40;;;11.60;53.10;;;;;;5093409;28;20473;-84
2022/11/21 04:38:51;;;;;;;10.80;7.33;;;11.50;53.20;;;;;;5088339;28;20456;-85
2022/11/21 04:41:19;;;;;;;8.57;7.00;;;11.50;53.10;;;;;;5093585;28;20461;-85
2022/11/21 04:43:47;;;;;;;13.60;7.47;;;11.50;53.20;;;;;;5087464;28;20464;-85
2022/11/21 04:46:15;;;;;;;10.70;7.57;;;11.50;53.00;;;;;;5093553;28;20445;-83
2022/11/21 04:48:43;;;;;;;12.60;8.27;;;11.50;53.10;;;;;;5094172;28;20533;-85
2022/11/21 04:51:11;;;;;;;11.83;7.70;;;11.40;53.00;;;;;;5092407;28;20454;-85
2022/11/21 04:53:39;;;;;;;10.07;6.80;;;11.40;53.20;;;;;;5090034;28;20476;-85
2022/11/21 04:56:15;;;;;;;11.17;7.80;;;11.40;53.00;;;;;;5094040;28;20484;-85
2022/11/21 04:58:43;;;;;;;10.87;7.70;;;11.40;53.00;;;;;;5092583;28;20453;-84
2022/11/21 05:01:11;;;;;;;13.63;8.33;;;11.40;53.00;;;;;;5076885;28;20461;-84
2022/11/21 05:03:40;;;;;;;12.10;7.50;;;11.40;53.00;;;;;;5088503;28;20449;-85
2022/11/21 05:06:08;;;;;;;10.40;8.00;;;11.40;53.10;;;;;;5073428;28;20474;-84
2022/11/21 05:08:36;;;;;;;9.17;6.97;;;11.40;53.00;;;;;;5072404;28;20454;-84
2022/11/21 05:13:54;;;;;;;13.13;8.07;;;11.40;53.10;;;;;;5072601;28;20526;-85
2022/11/21 05:16:22;;;;;;;9.30;7.40;;;11.30;53.00;;;;;;5074833;28;20480;-84
2022/11/21 05:18:49;;;;;;;11.50;7.43;;;11.30;53.00;;;;;;5067600;28;20454;-84
2022/11/21 05:21:17;;;;;;;11.40;7.83;;;11.30;52.90;;;;;;5075418;28;20460;-84
2022/11/21 05:23:46;;;;;;;11.43;7.67;;;11.30;52.90;;;;;;5073705;28;20532;-84
2022/11/21 05:26:14;;;;;;;18.87;8.10;;;11.30;52.90;;;;;;5076081;28;20474;-84
2022/11/21 05:28:42;;;;;;;12.43;7.57;;;11.30;53.00;;;;;;5083566;28;20446;-84
2022/11/21 05:31:11;;;;;;;11.67;7.87;;;11.20;52.80;;;;;;5085738;28;20457;-84
2022/11/21 05:33:39;;;;;;;10.77;7.37;;;11.20;52.90;;;;;;5082224;28;20472;-85
2022/11/21 05:36:07;;;;;;;9.50;6.83;;;11.20;52.90;;;;;;5086368;28;20473;-86
2022/11/21 05:38:35;;;;;;;13.40;7.43;;;11.30;52.80;;;;;;5084295;28;20459;-83
2022/11/21 05:41:03;;;;;;;9.43;7.00;;;11.20;52.80;;;;;;5083378;28;20446;-85
2022/11/21 05:43:47;;;;;;;10.20;7.40;;;11.20;52.90;;;;;;5079435;28;20462;-85
2022/11/21 05:46:18;;;;;;;10.77;7.27;;;11.20;52.80;;;;;;5085739;28;20469;-85
2022/11/21 05:48:46;;;;;;;11.30;7.80;;;11.20;52.70;;;;;;5082176;28;20506;-86
2022/11/21 05:51:14;;;;;;;9.93;7.30;;;11.20;52.70;;;;;;5081165;28;20449;-85
2022/11/21 05:53:42;;;;;;;8.93;7.23;;;11.20;52.90;;;;;;5076598;28;20475;-84
2022/11/21 05:56:10;;;;;;;12.70;7.83;;;11.20;52.80;;;;;;5085432;28;20461;-84
2022/11/21 05:58:38;;;;;;;9.73;7.07;;;11.20;52.80;;;;;;5083185;28;20445;-84
2022/11/21 06:01:06;;;;;;;12.83;8.83;;;11.20;52.70;;;;;;5083523;28;20448;-85
2022/11/21 06:03:36;;;;;;;12.20;7.90;;;11.20;52.70;;;;;;5085736;28;20485;-85
2022/11/21 06:06:05;;;;;;;10.23;7.40;;;11.10;52.80;;;;;;5081592;28;20477;-85
2022/11/21 06:08:34;;;;;;;9.10;6.90;;;11.10;52.60;;;;;;5079774;28;20460;-85
2022/11/21 06:11:02;;;;;;;12.50;8.17;;;11.10;52.70;;;;;;5075289;28;20461;-84
2022/11/21 06:13:32;;;;;;;10.63;7.53;;;11.10;52.70;;;;;;5081528;28;20584;-85
2022/11/21 06:16:01;;;;;;;9.00;7.27;;;11.10;52.50;;;;;;5080368;28;20759;-85
2022/11/21 06:18:31;;;;;;;9.77;6.97;;;11.10;52.70;;;;;;5080434;28;20513;-85
2022/11/21 06:21:04;;;;;;;10.80;7.50;;;11.10;52.80;;;;;;5078799;28;20449;-85
2022/11/21 06:23:32;;;;;;;11.23;7.37;;;11.10;52.60;;;;;;5078799;28;20505;-85
2022/11/21 06:26:02;;;;;;;10.13;7.60;;;11.10;52.80;;;;;;5079607;28;20473;-85
2022/11/21 06:28:31;;;;;;;10.47;7.50;;;11.10;52.90;;;;;;5072019;28;20455;-85
2022/11/21 06:31:02;;;;;;;10.53;7.37;;;11.10;52.80;;;;;;5078132;28;20464;-85
2022/11/21 06:33:30;;;;;;;11.37;7.30;;;11.10;52.90;;;;;;5082185;28;20474;-85
2022/11/21 06:36:01;;;;;;;10.77;7.70;;;11.10;52.90;;;;;;5082291;28;20483;-84
2022/11/21 06:38:30;;;;;;;9.03;7.17;;;11.10;52.90;;;;;;5076299;28;20453;-85
2022/11/21 06:40:58;;;;;;;10.77;7.80;;;11.10;52.80;;;;;;5082303;28;20454;-85
2022/11/21 06:43:26;;;;;;;13.23;8.73;;;11.10;52.90;;;;;;5077052;28;20454;-84
2022/11/21 06:45:55;;;;;;;9.53;7.70;;;11.10;52.90;;;;;;5084236;28;20480;-85
2022/11/21 06:48:23;;;;;;;12.63;7.80;;;11.10;52.80;;;;;;5084823;28;20454;-85
2022/11/21 06:50:51;;;;;;;9.07;7.10;;;11.10;52.80;;;;;;5083626;28;20494;-84
2022/11/21 06:53:19;;;;;;;10.80;7.13;;;11.10;52.80;;;;;;5083439;28;20460;-84
2022/11/21 06:55:48;;;;;;;11.60;7.73;;;11.10;52.90;;;;;;5078516;28;20466;-84
2022/11/21 06:58:17;;;;;;;9.53;7.53;;;11.10;52.90;;;;;;5082114;28;20454;-85
2022/11/21 07:00:47;;;;;;;11.77;8.03;;;11.10;52.90;;;;;;5079331;28;20459;-85
2022/11/21 07:03:15;;;;;;;12.03;7.77;;;11.10;52.80;;;;;;5076231;28;20449;-85
2022/11/21 07:05:43;;;;;;;9.43;7.30;;;11.00;52.80;;;;;;5080022;28;20472;-85
2022/11/21 07:08:12;;;;;;;10.27;7.10;;;11.00;52.70;;;;;;5077144;28;20449;-86
2022/11/21 07:10:40;;;;;;;11.63;8.40;;;11.00;52.80;;;;;;5075334;28;20452;-84
2022/11/21 07:13:31;;;;;;;10.67;8.10;;;11.00;52.60;;;;;;5076976;28;20446;-85
2022/11/21 07:16:01;;;;;;;10.00;7.50;;;11.00;52.70;;;;;;5084298;28;20491;-83
2022/11/21 07:18:30;;;;;;;12.27;7.87;;;11.00;52.70;;;;;;5079170;28;20499;-84
2022/11/21 07:20:59;;;;;;;10.27;7.27;;;11.00;52.70;;;;;;5080482;28;20456;-86
2022/11/21 07:23:27;;;;;;;10.50;7.47;;;11.00;52.70;;;;;;5082778;28;20456;-85
2022/11/21 07:25:55;;;;;;;12.07;8.50;;;11.10;52.80;;;;;;5079709;28;20532;-85
2022/11/21 07:28:23;;;;;;;12.33;7.93;;;11.10;52.70;;;;;;5085473;28;20449;-85
2022/11/21 07:30:55;;;;;;;10.03;7.63;;;11.10;52.80;;;;;;5089265;28;20460;-86
2022/11/21 07:33:23;;;;;;;11.77;8.00;;;11.10;52.80;;;;;;5083866;28;20457;-86
2022/11/21 07:35:51;;;;;;;11.47;7.73;;;11.10;52.70;;;;;;5088058;28;20545;-86
2022/11/21 07:38:20;;;;;;;13.10;8.13;;;11.20;52.80;;;;;;5088846;28;20476;-86
2022/11/21 07:40:48;;;;;;;11.63;7.83;;;11.20;52.80;;;;;;5085454;28;20449;-85
2022/11/21 07:43:16;;;;;;;9.50;7.60;;;11.20;52.90;;;;;;5090010;28;20472;-86
2022/11/21 07:45:44;;;;;;;10.77;8.20;;;11.20;53.00;;;;;;5085655;28;20466;-86
2022/11/21 07:48:14;;;;;;;12.13;8.40;;;11.20;52.90;;;;;;5081162;28;20457;-86
2022/11/21 07:50:42;;;;;;;9.83;7.10;;;11.20;52.80;;;;;;5083289;28;20457;-85
2022/11/21 07:53:10;;;;;;;10.23;7.83;;;11.30;53.00;;;;;;5084620;28;20457;-86
2022/11/21 07:55:39;;;;;;;10.20;7.80;;;11.30;53.00;;;;;;5082475;28;20474;-85
2022/11/21 07:58:12;;;;;;;12.57;8.10;;;11.30;53.00;;;;;;5084803;28;20513;-86
2022/11/21 08:00:42;;;;;;;11.63;7.83;;;11.40;53.00;;;;;;5087566;28;20453;-87
2022/11/21 08:03:11;;;;;;;11.27;7.90;;;11.40;53.20;;;;;;5083760;28;20479;-86
2022/11/21 08:05:41;;;;;;;10.70;8.07;;;11.40;53.10;;;;;;5067689;28;20470;-86
2022/11/21 08:08:09;;;;;;;12.13;8.07;;;11.40;53.20;;;;;;5088548;28;20521;-86
2022/11/21 08:10:37;;;;;;;10.73;8.17;;;11.40;53.30;;;;;;5081005;28;20465;-87
2022/11/21 08:13:05;;;;;;;13.37;8.13;;;11.40;53.30;;;;;;5083331;28;20469;-86
2022/11/21 08:15:34;;;;;;;11.23;8.20;;;11.40;53.50;;;;;;5088297;28;20483;-86
2022/11/21 08:18:07;;;;;;;11.63;8.47;;;11.50;53.60;;;;;;5082281;28;20457;-85
2022/11/21 08:20:35;;;;;;;8.77;7.03;;;11.50;53.60;;;;;;5088179;28;20453;-86
2022/11/21 08:23:05;;;;;;;11.90;8.43;;;11.50;53.60;;;;;;5087474;28;20464;-86
2022/11/21 08:25:34;;;;;;;10.13;7.70;;;11.50;53.70;;;;;;5089917;28;20560;-86
2022/11/21 08:28:02;;;;;;;10.87;7.60;;;11.60;53.80;;;;;;5087570;28;20460;-85
2022/11/21 08:30:31;;;;;;;11.93;7.53;;;11.60;54.00;;;;;;5086959;28;20473;-84
2022/11/21 08:32:59;;;;;;;12.10;8.00;;;11.60;53.90;;;;;;5087357;28;20445;-86
2022/11/21 08:35:27;;;;;;;11.17;7.80;;;11.60;54.00;;;;;;5082699;28;20477;-86
2022/11/21 08:37:56;;;;;;;11.67;8.03;;;11.70;54.10;;;;;;5084487;28;20902;-86
2022/11/21 08:40:25;;;;;;;11.87;8.10;;;11.70;54.10;;;;;;5086402;28;20450;-86
2022/11/21 08:42:57;;;;;;;11.43;7.73;;;11.70;54.20;;;;;;5086428;28;20471;-86
2022/11/21 08:45:25;;;;;;;12.27;8.13;;;11.60;54.00;;;;;;5080413;28;20465;-85
2022/11/21 08:47:53;;;;;;;12.27;8.10;;;11.70;54.40;;;;;;5087573;28;20449;-85
2022/11/21 08:50:21;;;;;;;9.87;7.80;;;11.70;54.20;;;;;;5088583;28;20445;-85
2022/11/21 08:52:49;;;;;;;11.80;8.40;;;11.80;54.40;;;;;;5085751;28;20452;-86
2022/11/21 08:55:17;;;;;;;10.27;7.87;;;11.80;54.40;;;;;;5086127;28;20481;-86
2022/11/21 08:57:46;;;;;;;9.60;7.20;;;11.90;54.50;;;;;;5074239;28;20532;-86
2022/11/21 09:00:15;;;;;;;9.77;7.43;;;11.90;54.40;;;;;;5084435;28;20456;-85
2022/11/21 09:02:43;;;;;;;11.73;8.03;;;11.90;54.60;;;;;;5081198;28;20461;-85
2022/11/21 09:05:11;;;;;;;10.17;7.93;;;12.00;54.60;;;;;;5086368;28;20479;-86
2022/11/21 09:07:40;;;;;;;10.40;7.97;;;12.00;54.60;;;;;;5082830;28;20458;-85
2022/11/21 09:10:09;;;;;;;9.40;7.80;;;12.00;54.50;;;;;;5078335;28;20458;-85
2022/11/21 09:12:37;;;;;;;9.93;7.70;;;12.10;54.60;;;;;;5075990;28;20449;-86
2022/11/21 09:18:05;;;;;;;12.60;8.13;;;12.20;54.60;;;;;;5081382;28;20464;-85
2022/11/21 09:20:37;;;;;;;11.73;8.60;;;12.20;54.60;;;;;;5077145;28;20449;-86
2022/11/21 09:23:05;;;;;;;11.00;8.17;;;12.20;54.70;;;;;;5080928;28;20468;-86
2022/11/21 09:25:34;;;;;;;11.00;8.13;;;12.30;54.90;;;;;;5081366;28;20478;-85
2022/11/21 09:28:01;;;;;;;9.60;7.93;;;12.40;54.90;;;;;;5080848;28;20509;-86
2022/11/21 09:30:31;;;;;;;10.73;7.87;;;12.50;54.90;;;;;;5072913;28;20485;-86
2022/11/21 09:33:00;;;;;;;10.30;8.13;;;12.50;54.80;;;;;;5079299;28;20445;-84
2022/11/21 09:35:28;;;;;;;13.07;9.00;;;12.60;54.90;;;;;;5078798;28;20480;-87
2022/11/21 09:37:57;;;;;;;10.77;8.07;;;12.60;55.00;;;;;;5072640;28;20525;-86
2022/11/21 09:40:25;;;;;;;15.13;9.23;;;12.70;55.00;;;;;;5074466;28;20449;-86
2022/11/21 09:43:14;;;;;;;12.03;9.13;;;12.80;55.00;;;;;;5072095;28;20468;-86
2022/11/21 09:45:46;;;;;;;11.93;8.97;;;12.90;54.90;;;;;;5075715;28;20488;-86
2022/11/21 09:48:15;;;;;;;11.90;8.77;;;13.00;54.80;;;;;;5077547;28;20438;-86
2022/11/21 09:50:44;;;;;;;12.17;8.80;;;13.10;54.90;;;;;;5083425;28;20425;-86
2022/11/21 09:53:22;;;;;;;13.50;9.77;;;13.10;54.80;;;;;;5079783;28;20433;-84
2022/11/21 09:55:51;;;;;;;11.60;9.00;;;13.10;54.90;;;;;;5082462;28;20473;-86
2022/11/21 09:58:23;;;;;;;12.90;9.07;;;13.20;54.90;;;;;;5081532;28;20433;-86
2022/11/21 10:00:53;;;;;;;12.47;9.10;;;13.20;54.90;;;;;;5085671;28;20436;-86
2022/11/21 10:03:22;;;;;;;17.00;9.40;;;13.20;54.70;;;;;;5079572;28;20453;-85
2022/11/21 10:05:54;;;;;;;14.30;10.17;;;13.20;54.80;;;;;;5079624;28;20454;-85
2022/11/21 10:08:29;;;;;;;13.60;9.57;;;13.30;54.80;;;;;;5079904;28;20441;-85
2022/11/21 10:11:00;;;;;;;11.37;9.07;;;13.30;55.00;;;;;;5078158;28;20434;-83
2022/11/21 10:13:57;;;;;;;13.97;10.13;;;13.30;55.00;;;;;;5081430;28;20499;-82
2022/11/21 10:16:30;;;;;;;13.03;9.43;;;13.30;54.90;;;;;;5080325;28;20472;-82
2022/11/21 10:19:12;;;;;;;13.10;9.80;;;13.30;55.10;;;;;;5084280;28;20509;-82
2022/11/21 10:21:54;;;;;;;13.83;10.10;;;13.30;55.00;;;;;;5073700;28;20445;-81
2022/11/21 10:24:39;;;;;;;15.17;10.37;;;13.30;55.10;;;;;;5080751;28;20444;-82
2022/11/21 10:27:11;;;;;;;15.30;9.63;;;13.30;55.10;;;;;;5104098;28;20453;-82
2022/11/21 10:29:41;;;;;;;13.30;9.67;;;13.40;55.20;;;;;;5063033;28;20446;-81
2022/11/21 10:32:16;;;;;;;16.33;10.47;;;13.40;55.10;;;;;;5067540;28;20514;-80
2022/11/21 10:34:44;;;;;;;16.00;10.90;;;13.40;55.20;;;;;;5074821;28;20438;-80
2022/11/21 10:37:15;;;;;;;14.60;9.97;;;13.50;55.20;;;;;;5074137;28;20481;-81
2022/11/21 10:39:44;;;;;;;17.03;11.00;;;13.60;55.50;;;;;;5073850;28;20441;-80
2022/11/21 10:42:15;;;;;;;15.90;11.47;;;14.00;56.10;;;;;;5071615;28;20460;-79
2022/11/21 10:47:37;;;;;;;12.80;10.00;;;14.90;56.00;;;;;;5070289;28;20434;-81
2022/11/21 10:50:12;;;;;;;14.47;10.13;;;15.40;55.80;;;;;;5060886;28;20451;-81
2022/11/21 10:52:43;;;;;;;13.87;10.10;;;15.80;55.60;;;;;;5063402;28;20441;-82
2022/11/21 10:55:12;;;;;;;18.17;9.60;;;16.20;55.80;;;;;;5060177;28;20852;-82
2022/11/21 10:57:42;;;;;;;10.90;9.07;;;16.60;56.00;;;;;;5065603;28;20442;-80
2022/11/21 11:00:16;;;;;;;12.90;8.53;;;16.90;56.10;;;;;;5081254;28;20429;-81
2022/11/21 11:03:03;;;;;;;17.43;9.37;;;17.20;56.30;;;;;;5072152;28;20430;-75
2022/11/21 11:05:32;;;;;;;12.70;10.30;;;17.50;56.60;;;;;;5065094;28;20454;-78
2022/11/21 11:08:02;;;;;;;14.30;10.80;;;17.50;54.90;;;;;;5071440;28;20455;-81
2022/11/21 11:10:30;;;;;;;17.07;10.73;;;17.70;53.50;;;;;;5058565;28;20452;-78
2022/11/21 11:16:06;;;;;;;15.43;10.83;;;17.60;52.40;;;;;;5067699;28;20478;-79
2022/11/21 11:18:36;;;;;;;14.03;10.90;;;17.90;49.30;;;;;;5057422;28;20450;-79
2022/11/21 11:21:16;;;;;;;15.83;10.37;;;18.10;49.70;;;;;;5071569;28;20449;-78
2022/11/21 11:23:45;;;;;;;14.00;10.40;;;18.40;48.90;;;;;;5056070;28;20439;-78
2022/11/21 11:26:25;;;;;;;13.30;9.80;;;18.80;47.60;;;;;;5060412;28;20476;-79
2022/11/21 11:28:54;;;;;;;13.83;10.17;;;18.90;47.80;;;;;;5063163;28;20453;-79
2022/11/21 11:31:22;;;;;;;14.77;10.03;;;19.00;45.50;;;;;;5068314;28;20972;-79
2022/11/21 11:33:52;;;;;;;14.40;11.13;;;18.90;45.70;;;;;;5064687;28;20536;-78
2022/11/21 11:36:33;;;;;;;11.77;9.73;;;19.40;45.10;;;;;;5060779;28;20469;-78
2022/11/21 11:39:09;;;;;;;10.47;9.20;;;19.60;43.90;;;;;;5057572;28;20537;-78
2022/11/21 11:47:38;;;;;;;11.27;7.70;;;20.00;41.60;;;;;;5076913;28;20445;-80
2022/11/21 11:50:11;;;;;;;15.10;8.17;;;20.00;40.00;;;;;;5080631;28;20468;-79
2022/11/21 11:52:43;;;;;;;11.23;8.13;;;20.00;39.30;;;;;;5074968;28;20448;-78
2022/11/21 11:55:15;;;;;;;11.63;7.90;;;20.10;37.90;;;;;;5070219;28;20479;-79
2022/11/21 11:57:43;;;;;;;16.27;10.00;;;20.30;37.90;;;;;;5080375;28;20979;-81
2022/11/21 12:00:21;;;;;;;14.53;9.33;;;20.90;37.80;;;;;;5083524;28;20453;-80
2022/11/21 12:02:52;;;;;;;11.87;8.53;;;21.10;36.50;;;;;;5089555;28;20418;-79
2022/11/21 12:05:23;;;;;;;12.67;8.33;;;20.90;36.40;;;;;;5081419;28;20461;-80
2022/11/21 12:07:55;;;;;;;9.43;7.57;;;21.00;35.00;;;;;;5072076;28;20446;-80
2022/11/21 12:13:27;;;;;;;8.83;6.33;;;20.60;34.00;;;;;;5062165;28;20449;-81
2022/11/21 12:15:56;;;;;;;8.67;7.00;;;20.30;33.50;;;;;;5068575;28;20470;-80
2022/11/21 12:18:51;;;;;;;8.00;6.50;;;19.90;33.60;;;;;;5063054;28;20472;-77
2022/11/21 12:21:22;;;;;;;9.00;6.20;;;19.40;33.70;;;;;;5065807;28;20453;-79
2022/11/21 12:23:51;;;;;;;7.73;6.30;;;19.00;33.30;;;;;;5072860;28;20450;-80
2022/11/21 12:26:27;;;;;;;7.20;5.73;;;18.90;33.00;;;;;;5067460;28;20458;-79
2022/11/21 12:29:05;;;;;;;6.37;5.43;;;19.10;34.00;;;;;;5065943;28;20435;-79
2022/11/21 12:31:39;;;;;;;6.70;5.23;;;18.80;32.40;;;;;;5067449;28;20476;-79
2022/11/21 12:34:12;;;;;;;7.17;6.33;;;18.70;33.20;;;;;;5063671;28;20449;-80
2022/11/21 12:36:43;;;;;;;9.10;6.27;;;18.40;32.30;;;;;;5076528;28;20501;-79
2022/11/21 12:39:40;;;;;;;7.70;6.90;;;18.10;32.40;;;;;;5073399;28;20491;-79
2022/11/21 12:45:02;;;;;;;10.60;6.60;;;17.30;33.10;;;;;;5066550;28;20459;-78
2022/11/21 12:56:09;;;;;;;9.87;7.50;;;16.20;34.00;;;;;;5071496;28;20466;-80
2022/11/21 12:58:39;;;;;;;8.83;7.07;;;16.20;34.80;;;;;;5063920;28;20511;-79
2022/11/21 13:01:15;;;;;;;13.90;9.27;;;16.00;34.10;;;;;;5063789;28;20458;-79
2022/11/21 13:03:52;;;;;;;9.47;7.83;;;15.90;34.60;;;;;;5063821;28;20472;-81
2022/11/21 13:06:21;;;;;;;11.70;8.10;;;16.20;35.30;;;;;;5083050;28;20465;-79
2022/11/21 13:08:51;;;;;;;13.83;9.40;;;16.10;33.40;;;;;;5065273;28;20434;-79
2022/11/21 13:14:16;;;;;;;11.63;8.47;;;15.90;35.40;;;;;;5078455;28;20928;-80
2022/11/21 13:16:45;;;;;;;12.13;8.30;;;16.00;34.90;;;;;;5076583;28;20473;-81
2022/11/21 13:19:20;;;;;;;15.80;9.53;;;16.00;34.80;;;;;;5075438;28;20434;-80
2022/11/21 13:21:49;;;;;;;14.27;10.00;;;16.20;35.00;;;;;;5056648;28;20423;-80
2022/11/21 13:24:55;;;;;;;14.60;10.90;;;16.20;35.00;;;;;;5071746;28;20433;-81
2022/11/21 13:27:27;;;;;;;14.63;10.00;;;16.20;34.30;;;;;;5060400;28;20445;-81